createdAt,value
2022-11-21T00:00:48.124Z,6.29
2022-11-21T00:03:17.180Z,6.21
2022-11-21T00:05:48.579Z,6.25
2022-11-21T00:08:20.758Z,6.23
2022-11-21T00:10:49.591Z,6.27
2022-11-21T00:13:19.924Z,6.23
2022-11-21T00:15:48.626Z,6.15
2022-11-21T00:18:17.238Z,6.18
2022-11-21T00:20:46.508Z,6.07
2022-11-21T00:23:15.459Z,6.01
2022-11-21T00:25:45.431Z,6.13
2022-11-21T00:28:14.011Z,6.12
2022-11-21T00:30:42.319Z,6.14
2022-11-21T00:33:10.641Z,6.08
2022-11-21T00:35:39.236Z,6.10
2022-11-21T00:38:07.610Z,6.18
2022-11-21T00:40:37.240Z,6.23
2022-11-21T00:43:07.166Z,6.11
2022-11-21T00:45:35.511Z,6.06
2022-11-21T00:48:04.151Z,6.04
2022-11-21T00:50:32.556Z,6.06
2022-11-21T00:53:00.923Z,5.98
2022-11-21T00:55:29.380Z,6.09
2022-11-21T00:57:57.627Z,6.04
2022-11-21T01:00:28.086Z,6.09
2022-11-21T01:02:56.631Z,6.05
2022-11-21T01:05:25.424Z,5.94
2022-11-21T01:07:53.956Z,5.95
2022-11-21T01:10:22.799Z,5.90
2022-11-21T01:12:51.055Z,5.92
2022-11-21T01:15:19.418Z,6.10
2022-11-21T01:17:49.594Z,6.10
2022-11-21T01:20:17.883Z,6.08
2022-11-21T01:22:47.802Z,6.12
2022-11-21T01:25:16.464Z,6.09
2022-11-21T01:27:45.276Z,6.06
2022-11-21T01:30:14.989Z,6.01
2022-11-21T01:32:43.387Z,6.05
2022-11-21T01:35:13.196Z,6.12
2022-11-21T01:37:42.039Z,6.00
2022-11-21T01:40:11.449Z,5.98
2022-11-21T01:42:53.330Z,5.94
2022-11-21T01:45:56.733Z,6.03
2022-11-21T01:48:29.473Z,6.00
2022-11-21T01:51:04.819Z,6.03
2022-11-21T01:53:34.277Z,6.02
2022-11-21T01:56:03.446Z,5.98
2022-11-21T01:58:37.037Z,6.07
2022-11-21T02:01:05.633Z,6.02
2022-11-21T02:03:38.639Z,6.02
2022-11-21T02:06:12.394Z,6.05
2022-11-21T02:08:44.548Z,6.03
2022-11-21T02:11:20.251Z,6.07
2022-11-21T02:13:48.730Z,6.09
2022-11-21T02:16:18.991Z,6.01
2022-11-21T02:18:47.515Z,6.11
2022-11-21T02:21:27.786Z,6.07
2022-11-21T02:24:02.691Z,5.96
2022-11-21T02:26:34.350Z,6.01
2022-11-21T02:29:02.795Z,5.94
2022-11-21T02:31:31.236Z,5.97
2022-11-21T02:33:59.903Z,6.01
2022-11-21T02:36:39.014Z,6.00
2022-11-21T02:39:09.064Z,6.04
2022-11-21T02:41:45.644Z,5.94
2022-11-21T02:44:21.763Z,5.95
2022-11-21T02:46:52.495Z,6.05
2022-11-21T02:49:29.427Z,6.00
2022-11-21T02:51:57.904Z,5.97
2022-11-21T02:54:26.779Z,6.07
2022-11-21T02:56:57.859Z,6.06
2022-11-21T02:59:25.945Z,6.08
2022-11-21T03:01:54.461Z,6.13
2022-11-21T03:04:23.487Z,6.16
2022-11-21T03:06:51.987Z,6.18
2022-11-21T03:09:20.541Z,6.25
2022-11-21T03:11:49.080Z,6.25
2022-11-21T03:14:18.957Z,6.25
2022-11-21T03:16:47.419Z,6.32
2022-11-21T03:19:15.624Z,6.25
2022-11-21T03:21:43.754Z,6.16
2022-11-21T03:24:12.316Z,6.21
2022-11-21T03:26:40.742Z,6.19
2022-11-21T03:29:09.764Z,6.22
2022-11-21T03:31:39.629Z,6.25
2022-11-21T03:34:09.151Z,6.22
2022-11-21T03:36:38.020Z,6.20
2022-11-21T03:39:06.731Z,6.02
2022-11-21T03:41:35.432Z,6.13
2022-11-21T03:44:06.737Z,6.08
2022-11-21T03:46:39.989Z,5.98
2022-11-21T03:49:09.278Z,6.03
2022-11-21T03:51:38.355Z,5.94
2022-11-21T03:54:07.383Z,5.88
2022-11-21T03:56:36.358Z,5.89
2022-11-21T03:59:05.314Z,5.95
2022-11-21T04:01:36.778Z,5.92
2022-11-21T04:04:07.292Z,5.90
2022-11-21T04:06:36.323Z,5.83
2022-11-21T04:09:04.626Z,5.92
2022-11-21T04:11:33.099Z,5.94
2022-11-21T04:14:01.263Z,5.96
2022-11-21T04:16:29.508Z,5.99
2022-11-21T04:18:58.201Z,5.91
2022-11-21T04:21:28.330Z,6.03
2022-11-21T04:23:56.911Z,5.94
2022-11-21T04:26:25.412Z,5.93
2022-11-21T04:28:53.859Z,6.06
2022-11-21T04:31:22.312Z,6.05
2022-11-21T04:33:50.759Z,6.11
2022-11-21T04:36:19.258Z,5.97
2022-11-21T04:38:50.560Z,5.99
2022-11-21T04:41:19.005Z,5.94
2022-11-21T04:43:47.201Z,5.92
2022-11-21T04:46:15.671Z,5.78
2022-11-21T04:48:43.959Z,5.74
2022-11-21T04:51:12.171Z,5.65
2022-11-21T04:53:43.083Z,5.65
2022-11-21T04:56:16.563Z,5.65
2022-11-21T04:58:46.766Z,5.64
2022-11-21T05:01:15.113Z,5.56
2022-11-21T05:03:43.302Z,5.57
2022-11-21T05:06:12.104Z,5.74
2022-11-21T05:08:40.783Z,5.73
2022-11-21T05:11:26.657Z,5.72
2022-11-21T05:13:56.665Z,5.79
2022-11-21T05:16:25.110Z,5.65
2022-11-21T05:18:53.589Z,5.78
2022-11-21T05:21:22.044Z,5.67
2022-11-21T05:23:50.847Z,5.75
2022-11-21T05:26:18.926Z,5.77
2022-11-21T05:28:47.945Z,5.72
2022-11-21T05:31:18.042Z,5.81
2022-11-21T05:33:46.613Z,5.75
2022-11-21T05:36:15.028Z,5.72
2022-11-21T05:38:43.610Z,5.85
2022-11-21T05:41:12.325Z,5.82
2022-11-21T05:43:49.123Z,5.76
2022-11-21T05:46:20.668Z,5.72
2022-11-21T05:48:50.622Z,5.75
2022-11-21T05:51:19.700Z,5.78
2022-11-21T05:53:49.536Z,5.75
2022-11-21T05:56:19.599Z,5.81
2022-11-21T05:58:48.070Z,5.86
2022-11-21T06:01:36.763Z,5.84
2022-11-21T06:04:05.776Z,5.96
2022-11-21T06:06:34.578Z,5.96
2022-11-21T06:09:03.363Z,5.73
2022-11-21T06:11:32.959Z,5.90
2022-11-21T06:14:01.536Z,5.92
2022-11-21T06:16:29.985Z,5.99
2022-11-21T06:18:59.018Z,6.02
2022-11-21T06:21:31.000Z,6.05
2022-11-21T06:24:00.402Z,6.05
2022-11-21T06:26:29.433Z,6.08
2022-11-21T06:28:58.010Z,5.87
2022-11-21T06:31:28.232Z,5.86
2022-11-21T06:33:58.398Z,6.02
2022-11-21T06:36:29.145Z,6.08
2022-11-21T06:38:57.851Z,6.10
2022-11-21T06:41:30.408Z,5.88
2022-11-21T06:44:00.416Z,5.81
2022-11-21T06:46:28.546Z,5.74
2022-11-21T06:48:57.022Z,5.73
2022-11-21T06:51:26.156Z,5.79
2022-11-21T06:53:58.099Z,5.79
2022-11-21T06:56:27.079Z,5.78
2022-11-21T06:58:56.069Z,5.80
2022-11-21T07:01:27.022Z,5.70
2022-11-21T07:03:56.561Z,5.84
2022-11-21T07:06:25.711Z,5.87
2022-11-21T07:09:25.221Z,5.96
2022-11-21T07:11:45.135Z,5.94
2022-11-21T07:14:13.918Z,6.03
2022-11-21T07:16:42.433Z,6.00
2022-11-21T07:19:12.255Z,6.05
2022-11-21T07:21:40.421Z,5.96
2022-11-21T07:24:10.887Z,6.05
2022-11-21T07:26:39.252Z,5.97
2022-11-21T07:29:07.516Z,5.97
2022-11-21T07:31:35.689Z,5.94
2022-11-21T07:34:04.126Z,5.93
2022-11-21T07:36:33.486Z,6.00
2022-11-21T07:39:01.984Z,6.12
2022-11-21T07:41:32.340Z,5.94
2022-11-21T07:44:00.783Z,5.84
2022-11-21T07:46:29.294Z,5.82
2022-11-21T07:49:02.934Z,5.87
2022-11-21T07:51:32.075Z,5.85
2022-11-21T07:54:03.437Z,5.93
2022-11-21T07:56:33.281Z,5.88
2022-11-21T07:59:01.559Z,5.78
2022-11-21T08:01:30.062Z,5.99
2022-11-21T08:03:58.260Z,6.02
2022-11-21T08:06:26.753Z,5.88
2022-11-21T08:08:55.959Z,5.89
2022-11-21T08:11:24.375Z,5.68
2022-11-21T08:13:55.149Z,5.66
2022-11-21T08:16:28.260Z,5.68
2022-11-21T08:18:57.203Z,5.76
2022-11-21T08:21:25.425Z,5.83
2022-11-21T08:23:54.007Z,5.90
2022-11-21T08:26:22.891Z,5.83
2022-11-21T08:28:55.568Z,5.83
2022-11-21T08:31:28.827Z,5.83
2022-11-21T08:33:58.165Z,5.86
2022-11-21T08:36:28.215Z,5.86
2022-11-21T08:38:58.645Z,5.83
2022-11-21T08:41:43.813Z,5.99
2022-11-21T08:44:14.208Z,5.83
2022-11-21T08:46:46.520Z,5.97
2022-11-21T08:49:15.548Z,5.99
2022-11-21T08:51:43.698Z,5.83
2022-11-21T08:54:12.185Z,5.83
2022-11-21T08:56:40.729Z,5.88
2022-11-21T08:59:09.309Z,5.80
2022-11-21T09:01:37.923Z,5.83
2022-11-21T09:04:08.703Z,5.97
2022-11-21T09:06:37.999Z,5.92
2022-11-21T09:09:07.900Z,6.00
2022-11-21T09:11:37.802Z,6.16
2022-11-21T09:14:23.613Z,6.20
2022-11-21T09:17:09.305Z,6.20
2022-11-21T09:19:39.214Z,6.20
2022-11-21T09:22:07.957Z,6.10
2022-11-21T09:24:36.268Z,6.05
2022-11-21T09:27:05.039Z,6.06
2022-11-21T09:29:33.189Z,6.02
2022-11-21T09:32:01.695Z,6.11
2022-11-21T09:34:33.122Z,6.15
2022-11-21T09:37:03.623Z,6.18
2022-11-21T09:39:32.285Z,6.21
2022-11-21T09:42:16.805Z,6.53
2022-11-21T09:45:00.749Z,6.53
2022-11-21T09:47:30.793Z,6.50
2022-11-21T09:50:03.018Z,6.51
2022-11-21T09:52:42.861Z,6.41
2022-11-21T09:55:22.726Z,6.38
2022-11-21T09:57:53.894Z,6.51
2022-11-21T10:00:26.018Z,6.50
2022-11-21T10:02:54.982Z,6.48
2022-11-21T10:05:34.795Z,6.48
2022-11-21T10:08:14.922Z,6.50
2022-11-21T10:10:57.226Z,6.57
2022-11-21T10:13:39.675Z,6.52
2022-11-21T10:16:17.495Z,6.63
2022-11-21T10:19:04.390Z,6.73
2022-11-21T10:22:01.547Z,6.64
2022-11-21T10:24:46.333Z,6.70
2022-11-21T10:27:20.142Z,6.83
2022-11-21T10:29:55.214Z,6.87
2022-11-21T10:32:27.926Z,6.94
2022-11-21T10:35:01.644Z,7.06
2022-11-21T10:37:36.542Z,7.01
2022-11-21T10:40:27.663Z,7.02
2022-11-21T10:42:59.998Z,7.12
2022-11-21T10:45:27.367Z,7.29
2022-11-21T10:47:55.574Z,7.47
2022-11-21T10:50:39.813Z,7.63
2022-11-21T10:53:34.223Z,8.02
2022-11-21T10:56:08.593Z,7.91
2022-11-21T10:58:42.923Z,7.93
2022-11-21T11:01:26.035Z,7.67
2022-11-21T11:04:32.102Z,7.41
2022-11-21T11:07:24.715Z,7.45
2022-11-21T11:09:54.051Z,7.47
2022-11-21T11:12:47.542Z,7.57
2022-11-21T11:15:22.020Z,7.64
2022-11-21T11:17:56.499Z,7.64
2022-11-21T11:20:34.352Z,7.66
2022-11-21T11:23:18.089Z,8.26
2022-11-21T11:25:48.998Z,8.63
2022-11-21T11:28:20.199Z,8.42
2022-11-21T11:30:51.173Z,8.55
2022-11-21T11:33:34.541Z,8.95
2022-11-21T11:36:22.216Z,8.91
2022-11-21T11:38:55.095Z,8.59
2022-11-21T11:42:30.685Z,8.80
2022-11-21T11:45:33.600Z,8.55
2022-11-21T11:48:03.480Z,8.55
2022-11-21T11:50:37.446Z,8.61
2022-11-21T11:53:12.835Z,9.26
2022-11-21T11:55:46.968Z,9.68
2022-11-21T11:58:23.495Z,10.29
2022-11-21T12:01:01.585Z,10.20
2022-11-21T12:03:41.344Z,9.52
2022-11-21T12:06:17.734Z,9.39
2022-11-21T12:08:53.756Z,9.25
2022-11-21T12:11:49.329Z,8.92
2022-11-21T12:14:56.005Z,8.59
2022-11-21T12:17:39.138Z,8.22
2022-11-21T12:20:17.824Z,7.89
2022-11-21T12:22:48.713Z,7.79
2022-11-21T12:25:17.871Z,7.77
2022-11-21T12:27:52.263Z,7.91
2022-11-21T12:30:45.504Z,7.87
2022-11-21T12:33:22.443Z,7.77
2022-11-21T12:36:18.828Z,8.00
2022-11-21T12:38:59.841Z,8.13
2022-11-21T12:41:51.695Z,8.14
2022-11-21T12:44:38.604Z,8.13
2022-11-21T12:47:29.400Z,8.24
2022-11-21T12:50:24.570Z,8.10
2022-11-21T12:53:19.903Z,8.61
2022-11-21T12:55:49.315Z,8.56
2022-11-21T12:58:30.512Z,8.51
2022-11-21T13:01:21.447Z,8.20
2022-11-21T13:03:56.946Z,8.55
2022-11-21T13:06:30.198Z,8.35
2022-11-21T13:09:02.622Z,8.26
2022-11-21T13:12:00.551Z,8.25
2022-11-21T13:14:42.164Z,8.30
2022-11-21T13:17:36.210Z,8.48
2022-11-21T13:20:14.757Z,8.43
2022-11-21T13:22:59.274Z,8.26
2022-11-21T13:25:39.932Z,8.29
2022-11-21T13:28:34.640Z,8.30
2022-11-21T13:31:07.060Z,8.15
2022-11-21T13:33:57.438Z,7.97
2022-11-21T13:36:43.815Z,8.23
2022-11-21T13:39:35.626Z,8.10
2022-11-21T13:42:26.019Z,7.92
2022-11-21T13:44:54.422Z,8.15
2022-11-21T13:47:56.637Z,8.04
2022-11-21T13:50:42.571Z,7.98
2022-11-21T13:53:26.357Z,8.01
2022-11-21T13:56:01.354Z,7.98
2022-11-21T13:58:48.790Z,7.97
2022-11-21T14:01:44.064Z,8.22
2022-11-21T14:04:38.056Z,8.34
2022-11-21T14:07:26.835Z,8.33
2022-11-21T14:09:57.549Z,8.17
2022-11-21T14:12:34.577Z,7.79
2022-11-21T14:15:24.000Z,8.13
2022-11-21T14:17:55.244Z,7.83
2022-11-21T14:20:28.281Z,7.85
2022-11-21T14:23:00.231Z,7.84
2022-11-21T14:25:37.439Z,7.90
2022-11-21T14:28:12.571Z,7.67
2022-11-21T14:30:42.666Z,7.92
2022-11-21T14:33:37.965Z,8.07
2022-11-21T14:36:10.307Z,8.47
2022-11-21T14:39:02.161Z,8.68
2022-11-21T14:41:40.065Z,9.01
2022-11-21T14:44:18.321Z,9.29
2022-11-21T14:46:48.130Z,9.31
2022-11-21T14:49:30.540Z,9.88
2022-11-21T14:52:16.885Z,9.78
2022-11-21T14:55:14.982Z,10.02
2022-11-21T14:57:43.019Z,9.95
2022-11-21T15:03:21.041Z,9.00
2022-11-21T15:06:08.372Z,8.59
2022-11-21T15:11:36.637Z,7.91
2022-11-21T15:14:22.966Z,7.66
2022-11-21T15:16:55.723Z,7.61
2022-11-21T15:19:27.391Z,7.51
2022-11-21T15:21:59.407Z,7.25
2022-11-21T15:24:36.486Z,7.29
2022-11-21T15:27:30.546Z,7.09
2022-11-21T15:30:22.412Z,7.03
2022-11-21T15:33:08.166Z,7.05
2022-11-21T15:35:51.123Z,6.89
2022-11-21T15:38:28.550Z,6.90
2022-11-21T15:40:59.220Z,6.81
2022-11-21T15:43:43.915Z,6.79
2022-11-21T15:46:18.010Z,6.66
2022-11-21T15:48:49.360Z,6.76
2022-11-21T15:51:27.197Z,6.66
2022-11-21T15:54:08.121Z,6.60
2022-11-21T15:56:38.125Z,6.49
2022-11-21T15:59:06.764Z,6.43
2022-11-21T16:01:37.216Z,6.39
2022-11-21T16:04:11.160Z,6.35
2022-11-21T16:06:39.751Z,6.22
2022-11-21T16:09:10.662Z,6.15
2022-11-21T16:11:43.645Z,6.21
2022-11-21T16:14:20.947Z,6.20
2022-11-21T16:16:53.470Z,6.11
2022-11-21T16:19:23.715Z,6.12
2022-11-21T16:21:53.769Z,5.98
2022-11-21T16:24:22.831Z,5.94
2022-11-21T16:26:55.292Z,5.93
2022-11-21T16:29:26.670Z,5.93
2022-11-21T16:31:57.698Z,5.93
2022-11-21T16:34:27.790Z,5.88
2022-11-21T16:36:57.239Z,5.85
2022-11-21T16:39:29.199Z,5.84
2022-11-21T16:41:57.880Z,5.79
2022-11-21T16:44:28.213Z,5.79
2022-11-21T16:47:07.825Z,5.74
2022-11-21T16:49:43.195Z,5.63
2022-11-21T16:52:11.673Z,5.55
2022-11-21T16:54:40.226Z,5.58
2022-11-21T16:57:08.971Z,5.45
2022-11-21T16:59:38.416Z,5.44
2022-11-21T17:02:07.221Z,5.43
2022-11-21T17:04:36.117Z,5.35
2022-11-21T17:07:08.388Z,5.36
2022-11-21T17:09:37.391Z,5.35
2022-11-21T17:12:08.779Z,5.27
2022-11-21T17:14:39.086Z,5.25
2022-11-21T17:17:08.110Z,5.31
2022-11-21T17:19:36.299Z,5.20
2022-11-21T17:22:05.252Z,5.07
2022-11-21T17:24:35.511Z,5.11
2022-11-21T17:27:04.373Z,4.91
2022-11-21T17:29:35.898Z,4.98
2022-11-21T17:32:05.693Z,4.97
2022-11-21T17:34:36.997Z,4.96
2022-11-21T17:37:09.223Z,4.94
2022-11-21T17:39:40.506Z,4.96
2022-11-21T17:42:11.693Z,4.99
2022-11-21T17:44:41.567Z,5.04
2022-11-21T17:47:10.291Z,5.02
2022-11-21T17:49:41.083Z,5.03
2022-11-21T17:52:10.675Z,5.08
2022-11-21T17:54:43.833Z,5.14
2022-11-21T17:57:12.322Z,5.07
2022-11-21T17:59:47.071Z,5.12
2022-11-21T18:02:18.994Z,5.12
2022-11-21T18:04:49.039Z,5.14
2022-11-21T18:07:18.058Z,5.23
2022-11-21T18:09:49.416Z,5.29
2022-11-21T18:12:19.822Z,5.21
2022-11-21T18:14:49.388Z,5.30
2022-11-21T18:17:20.798Z,5.33
2022-11-21T18:19:52.361Z,5.34
2022-11-21T18:22:29.216Z,5.36
2022-11-21T18:25:01.495Z,5.47
2022-11-21T18:27:30.401Z,5.37
2022-11-21T18:29:59.938Z,5.39
2022-11-21T18:32:29.545Z,5.42
2022-11-21T18:34:58.401Z,5.43
2022-11-21T18:37:27.274Z,5.40
2022-11-21T18:39:58.191Z,5.35
2022-11-21T18:42:28.350Z,5.33
2022-11-21T18:44:56.500Z,5.22
2022-11-21T18:47:25.915Z,5.31
2022-11-21T18:49:54.638Z,5.24
2022-11-21T18:52:24.582Z,5.22
2022-11-21T18:54:54.102Z,5.18
2022-11-21T18:57:22.538Z,4.99
2022-11-21T18:59:52.455Z,5.12
2022-11-21T19:02:20.856Z,5.21
2022-11-21T19:04:49.524Z,5.21
2022-11-21T19:07:20.612Z,5.10
2022-11-21T19:09:48.797Z,5.22
2022-11-21T19:12:17.874Z,5.30
2022-11-21T19:14:46.233Z,5.29
2022-11-21T19:17:17.078Z,5.39
2022-11-21T19:19:46.828Z,5.37
2022-11-21T19:22:15.180Z,5.51
2022-11-21T19:24:45.783Z,5.44
2022-11-21T19:27:24.473Z,5.36
2022-11-21T19:29:55.379Z,5.44
2022-11-21T19:32:27.566Z,5.51
2022-11-21T19:34:56.323Z,5.46
2022-11-21T19:37:24.849Z,5.49
2022-11-21T19:39:54.664Z,5.51
2022-11-21T19:42:24.358Z,5.45
2022-11-21T19:44:52.980Z,5.51
2022-11-21T19:47:21.402Z,5.49
2022-11-21T19:49:53.996Z,5.46
2022-11-21T19:52:27.767Z,5.46
2022-11-21T19:54:57.228Z,5.54
2022-11-21T19:57:25.743Z,5.52
2022-11-21T19:59:54.211Z,5.51
2022-11-21T20:02:23.056Z,5.51
2022-11-21T20:04:54.398Z,5.53
2022-11-21T20:07:24.908Z,5.53
2022-11-21T20:09:53.862Z,5.52
2022-11-21T20:12:22.244Z,5.56
2022-11-21T20:14:50.546Z,5.56
2022-11-21T20:17:19.610Z,5.48
2022-11-21T20:19:50.518Z,5.55
2022-11-21T20:22:20.936Z,5.49
2022-11-21T20:24:51.855Z,5.62
2022-11-21T20:27:20.874Z,5.56
2022-11-21T20:29:49.072Z,5.53
2022-11-21T20:32:17.190Z,5.45
2022-11-21T20:34:48.073Z,5.50
2022-11-21T20:37:16.507Z,5.52
2022-11-21T20:39:49.645Z,5.60
2022-11-21T20:42:18.232Z,5.55
2022-11-21T20:47:38.812Z,5.60
2022-11-21T20:50:08.141Z,5.52
2022-11-21T20:55:28.037Z,5.66
2022-11-21T20:57:56.170Z,5.70
2022-11-21T21:00:24.930Z,5.67
2022-11-21T21:02:53.393Z,5.61
2022-11-21T21:05:22.593Z,5.73
2022-11-21T21:07:52.951Z,5.71
2022-11-21T21:10:25.548Z,5.83
2022-11-21T21:12:55.430Z,5.85
2022-11-21T21:15:23.705Z,5.77
2022-11-21T21:17:52.399Z,5.84
2022-11-21T21:20:20.994Z,5.83
2022-11-21T21:22:49.461Z,5.84
2022-11-21T21:25:18.059Z,5.87
2022-11-21T21:27:50.527Z,5.87
2022-11-21T21:30:21.606Z,5.94
2022-11-21T21:32:50.606Z,5.93
2022-11-21T21:35:19.143Z,6.01
2022-11-21T21:37:48.561Z,5.97
2022-11-21T21:40:18.317Z,5.92
2022-11-21T21:42:48.423Z,5.95
2022-11-21T21:45:16.710Z,5.87
2022-11-21T21:47:46.992Z,5.94
2022-11-21T21:50:16.143Z,5.97
2022-11-21T21:52:44.683Z,6.02
2022-11-21T21:55:12.856Z,5.95
2022-11-21T21:57:45.131Z,5.96
2022-11-21T22:00:16.944Z,5.98
2022-11-21T22:02:47.452Z,5.96
2022-11-21T22:05:15.926Z,5.98
2022-11-21T22:07:44.147Z,5.95
2022-11-21T22:10:13.525Z,5.97
2022-11-21T22:12:44.282Z,5.95
2022-11-21T22:15:12.978Z,6.00
2022-11-21T22:17:41.207Z,5.98
2022-11-21T22:20:12.294Z,5.92
2022-11-21T22:22:45.226Z,5.95
2022-11-21T22:25:15.692Z,5.90
2022-11-21T22:27:46.354Z,5.89
2022-11-21T22:30:15.066Z,5.91
2022-11-21T22:32:45.249Z,5.92
2022-11-21T22:35:15.519Z,5.84
2022-11-21T22:37:44.428Z,5.88
2022-11-21T22:40:14.505Z,5.91
2022-11-21T22:42:42.625Z,5.75
2022-11-21T22:45:11.967Z,5.85
2022-11-21T22:47:46.441Z,5.77
2022-11-21T22:50:19.030Z,5.75
2022-11-21T22:52:48.041Z,5.78
2022-11-21T22:55:16.838Z,5.66
2022-11-21T22:57:46.620Z,5.74
2022-11-21T23:00:16.121Z,5.65
2022-11-21T23:02:44.783Z,5.56
2022-11-21T23:05:13.085Z,5.51
2022-11-21T23:07:44.501Z,5.57
2022-11-21T23:10:13.220Z,5.49
2022-11-21T23:12:42.277Z,5.54
2022-11-21T23:15:12.002Z,5.57
2022-11-21T23:17:41.705Z,5.51
2022-11-21T23:20:11.320Z,5.51
2022-11-21T23:22:39.755Z,5.46
2022-11-21T23:25:11.659Z,5.43
2022-11-21T23:27:40.116Z,5.45
2022-11-21T23:30:11.386Z,5.47
2022-11-21T23:32:40.020Z,5.44
2022-11-21T23:35:09.377Z,5.44
2022-11-21T23:37:39.999Z,5.45
2022-11-21T23:40:12.059Z,5.47
2022-11-21T23:42:40.359Z,5.41
2022-11-21T23:45:10.184Z,5.47
2022-11-21T23:47:38.335Z,5.46
2022-11-21T23:50:07.764Z,5.48
2022-11-21T23:52:36.790Z,5.37
2022-11-21T23:55:05.348Z,5.48
2022-11-21T23:57:35.927Z,5.40
